sensor_id;sensor_type;location;lat;lon;timestamp;P1;durP1;ratioP1;P2;durP2;ratioP2
11490;SDS011;5802;52.832;4.758;2023-11-19T00:01:32;6.45;;;1.67;;
11490;SDS011;5802;52.832;4.758;2023-11-19T00:03:59;3.17;;;1.60;;
11490;SDS011;5802;52.832;4.758;2023-11-19T00:06:27;3.20;;;1.20;;
11490;SDS011;5802;52.832;4.758;2023-11-19T00:08:53;2.92;;;1.35;;
11490;SDS011;5802;52.832;4.758;2023-11-19T00:11:20;5.10;;;1.95;;
11490;SDS011;5802;52.832;4.758;2023-11-19T00:13:47;2.47;;;1.35;;
11490;SDS011;5802;52.832;4.758;2023-11-19T00:16:13;3.78;;;1.38;;
11490;SDS011;5802;52.832;4.758;2023-11-19T00:18:41;5.68;;;1.98;;
11490;SDS011;5802;52.832;4.758;2023-11-19T00:21:08;3.33;;;1.52;;
11490;SDS011;5802;52.832;4.758;2023-11-19T00:23:36;4.60;;;1.55;;
11490;SDS011;5802;52.832;4.758;2023-11-19T00:26:03;6.07;;;1.70;;
11490;SDS011;5802;52.832;4.758;2023-11-19T00:28:31;4.45;;;1.45;;
11490;SDS011;5802;52.832;4.758;2023-11-19T00:30:58;4.75;;;1.50;;
11490;SDS011;5802;52.832;4.758;2023-11-19T00:33:24;3.00;;;1.27;;
11490;SDS011;5802;52.832;4.758;2023-11-19T00:35:51;2.50;;;1.30;;
11490;SDS011;5802;52.832;4.758;2023-11-19T00:38:17;5.30;;;1.58;;
11490;SDS011;5802;52.832;4.758;2023-11-19T00:40:45;3.25;;;1.50;;
11490;SDS011;5802;52.832;4.758;2023-11-19T00:43:12;3.78;;;1.73;;
11490;SDS011;5802;52.832;4.758;2023-11-19T00:45:39;3.13;;;1.52;;
11490;SDS011;5802;52.832;4.758;2023-11-19T00:48:05;3.92;;;1.75;;
11490;SDS011;5802;52.832;4.758;2023-11-19T00:50:32;5.38;;;1.65;;
11490;SDS011;5802;52.832;4.758;2023-11-19T00:52:59;4.00;;;1.50;;
11490;SDS011;5802;52.832;4.758;2023-11-19T00:55:25;5.38;;;1.85;;
11490;SDS011;5802;52.832;4.758;2023-11-19T00:57:53;6.38;;;1.90;;
11490;SDS011;5802;52.832;4.758;2023-11-19T01:00:21;5.03;;;1.92;;
11490;SDS011;5802;52.832;4.758;2023-11-19T01:02:51;4.45;;;1.85;;
11490;SDS011;5802;52.832;4.758;2023-11-19T01:05:18;4.93;;;1.52;;
11490;SDS011;5802;52.832;4.758;2023-11-19T01:07:47;4.30;;;1.80;;
11490;SDS011;5802;52.832;4.758;2023-11-19T01:10:14;4.85;;;1.70;;
11490;SDS011;5802;52.832;4.758;2023-11-19T01:12:41;5.18;;;1.58;;
11490;SDS011;5802;52.832;4.758;2023-11-19T01:15:09;4.93;;;1.95;;
11490;SDS011;5802;52.832;4.758;2023-11-19T01:17:36;4.35;;;2.10;;
11490;SDS011;5802;52.832;4.758;2023-11-19T01:20:03;4.18;;;1.90;;
11490;SDS011;5802;52.832;4.758;2023-11-19T01:22:31;4.60;;;1.70;;
11490;SDS011;5802;52.832;4.758;2023-11-19T01:24:58;5.53;;;2.03;;
11490;SDS011;5802;52.832;4.758;2023-11-19T01:27:25;5.60;;;1.80;;
11490;SDS011;5802;52.832;4.758;2023-11-19T01:29:51;5.45;;;2.10;;
11490;SDS011;5802;52.832;4.758;2023-11-19T01:32:19;4.85;;;1.75;;
11490;SDS011;5802;52.832;4.758;2023-11-19T01:34:46;4.47;;;1.63;;
11490;SDS011;5802;52.832;4.758;2023-11-19T01:37:12;4.45;;;1.90;;
11490;SDS011;5802;52.832;4.758;2023-11-19T01:39:39;6.55;;;1.90;;
11490;SDS011;5802;52.832;4.758;2023-11-19T01:42:06;3.55;;;1.65;;
11490;SDS011;5802;52.832;4.758;2023-11-19T01:44:32;4.25;;;1.63;;
11490;SDS011;5802;52.832;4.758;2023-11-19T01:46:59;7.35;;;1.95;;
11490;SDS011;5802;52.832;4.758;2023-11-19T01:49:28;3.30;;;1.58;;
11490;SDS011;5802;52.832;4.758;2023-11-19T01:51:54;4.90;;;1.90;;
11490;SDS011;5802;52.832;4.758;2023-11-19T01:54:23;4.43;;;1.90;;
11490;SDS011;5802;52.832;4.758;2023-11-19T01:56:50;5.88;;;1.90;;
11490;SDS011;5802;52.832;4.758;2023-11-19T01:59:18;4.72;;;1.50;;
11490;SDS011;5802;52.832;4.758;2023-11-19T02:01:51;4.43;;;1.77;;
11490;SDS011;5802;52.832;4.758;2023-11-19T02:04:19;5.47;;;2.10;;
11490;SDS011;5802;52.832;4.758;2023-11-19T02:06:48;5.47;;;1.60;;
11490;SDS011;5802;52.832;4.758;2023-11-19T02:09:17;6.00;;;1.88;;
11490;SDS011;5802;52.832;4.758;2023-11-19T02:11:44;3.67;;;1.70;;
11490;SDS011;5802;52.832;4.758;2023-11-19T02:14:14;7.20;;;1.98;;
11490;SDS011;5802;52.832;4.758;2023-11-19T02:16:40;2.78;;;1.70;;
11490;SDS011;5802;52.832;4.758;2023-11-19T02:19:07;5.20;;;1.90;;
11490;SDS011;5802;52.832;4.758;2023-11-19T02:21:35;6.47;;;1.98;;
11490;SDS011;5802;52.832;4.758;2023-11-19T02:24:04;5.40;;;1.65;;
11490;SDS011;5802;52.832;4.758;2023-11-19T02:26:36;5.15;;;1.95;;
11490;SDS011;5802;52.832;4.758;2023-11-19T02:29:11;5.38;;;1.90;;
11490;SDS011;5802;52.832;4.758;2023-11-19T02:31:38;4.43;;;1.70;;
11490;SDS011;5802;52.832;4.758;2023-11-19T02:34:05;5.93;;;1.77;;
11490;SDS011;5802;52.832;4.758;2023-11-19T02:36:31;4.32;;;1.80;;
11490;SDS011;5802;52.832;4.758;2023-11-19T02:38:58;4.55;;;1.70;;
11490;SDS011;5802;52.832;4.758;2023-11-19T02:41:25;5.57;;;1.98;;
11490;SDS011;5802;52.832;4.758;2023-11-19T02:43:51;4.32;;;2.08;;
11490;SDS011;5802;52.832;4.758;2023-11-19T02:46:20;4.50;;;1.58;;
11490;SDS011;5802;52.832;4.758;2023-11-19T02:48:46;4.80;;;1.50;;
11490;SDS011;5802;52.832;4.758;2023-11-19T02:51:13;6.28;;;2.38;;
11490;SDS011;5802;52.832;4.758;2023-11-19T02:53:40;6.07;;;2.08;;
11490;SDS011;5802;52.832;4.758;2023-11-19T02:56:09;6.63;;;2.30;;
11490;SDS011;5802;52.832;4.758;2023-11-19T02:58:44;5.28;;;2.10;;
11490;SDS011;5802;52.832;4.758;2023-11-19T03:01:11;5.70;;;1.83;;
11490;SDS011;5802;52.832;4.758;2023-11-19T03:03:49;7.45;;;1.75;;
11490;SDS011;5802;52.832;4.758;2023-11-19T03:06:19;4.93;;;2.13;;
11490;SDS011;5802;52.832;4.758;2023-11-19T03:08:46;6.80;;;2.13;;
11490;SDS011;5802;52.832;4.758;2023-11-19T03:11:13;4.75;;;1.90;;
11490;SDS011;5802;52.832;4.758;2023-11-19T03:13:40;3.30;;;1.75;;
11490;SDS011;5802;52.832;4.758;2023-11-19T03:16:07;5.07;;;1.98;;
11490;SDS011;5802;52.832;4.758;2023-11-19T03:18:33;6.15;;;2.15;;
11490;SDS011;5802;52.832;4.758;2023-11-19T03:21:01;5.32;;;2.00;;
11490;SDS011;5802;52.832;4.758;2023-11-19T03:23:28;4.32;;;1.73;;
11490;SDS011;5802;52.832;4.758;2023-11-19T03:25:56;4.53;;;1.60;;
11490;SDS011;5802;52.832;4.758;2023-11-19T03:28:22;5.72;;;2.10;;
11490;SDS011;5802;52.832;4.758;2023-11-19T03:30:49;4.68;;;2.00;;
11490;SDS011;5802;52.832;4.758;2023-11-19T03:33:16;3.22;;;1.67;;
11490;SDS011;5802;52.832;4.758;2023-11-19T03:35:43;6.30;;;2.30;;
11490;SDS011;5802;52.832;4.758;2023-11-19T03:38:12;5.72;;;2.42;;
11490;SDS011;5802;52.832;4.758;2023-11-19T03:40:39;4.55;;;2.00;;
11490;SDS011;5802;52.832;4.758;2023-11-19T03:43:06;4.05;;;2.00;;
11490;SDS011;5802;52.832;4.758;2023-11-19T03:45:34;6.05;;;2.00;;
11490;SDS011;5802;52.832;4.758;2023-11-19T03:48:02;5.72;;;2.40;;
11490;SDS011;5802;52.832;4.758;2023-11-19T03:50:29;5.85;;;2.00;;
11490;SDS011;5802;52.832;4.758;2023-11-19T03:52:56;7.72;;;2.30;;
11490;SDS011;5802;52.832;4.758;2023-11-19T03:55:24;4.90;;;1.55;;
11490;SDS011;5802;52.832;4.758;2023-11-19T03:57:50;6.18;;;2.33;;
11490;SDS011;5802;52.832;4.758;2023-11-19T04:00:17;7.20;;;2.47;;
11490;SDS011;5802;52.832;4.758;2023-11-19T04:02:46;4.53;;;2.00;;
11490;SDS011;5802;52.832;4.758;2023-11-19T04:05:12;4.68;;;1.98;;
11490;SDS011;5802;52.832;4.758;2023-11-19T04:07:39;7.82;;;2.22;;
11490;SDS011;5802;52.832;4.758;2023-11-19T04:10:06;5.53;;;1.83;;
11490;SDS011;5802;52.832;4.758;2023-11-19T04:12:35;8.88;;;2.40;;
11490;SDS011;5802;52.832;4.758;2023-11-19T04:15:02;4.90;;;2.00;;
11490;SDS011;5802;52.832;4.758;2023-11-19T04:17:29;8.05;;;2.25;;
11490;SDS011;5802;52.832;4.758;2023-11-19T04:19:56;4.85;;;2.20;;
11490;SDS011;5802;52.832;4.758;2023-11-19T04:22:23;4.40;;;2.15;;
11490;SDS011;5802;52.832;4.758;2023-11-19T04:24:51;5.03;;;2.08;;
11490;SDS011;5802;52.832;4.758;2023-11-19T04:27:18;5.28;;;2.20;;
11490;SDS011;5802;52.832;4.758;2023-11-19T04:29:46;5.63;;;1.95;;
11490;SDS011;5802;52.832;4.758;2023-11-19T04:32:13;4.25;;;2.17;;
11490;SDS011;5802;52.832;4.758;2023-11-19T04:34:40;5.53;;;2.25;;
11490;SDS011;5802;52.832;4.758;2023-11-19T04:37:07;5.38;;;1.80;;
11490;SDS011;5802;52.832;4.758;2023-11-19T04:39:34;4.63;;;1.95;;
11490;SDS011;5802;52.832;4.758;2023-11-19T04:42:02;4.25;;;2.10;;
11490;SDS011;5802;52.832;4.758;2023-11-19T04:44:31;6.32;;;2.42;;
11490;SDS011;5802;52.832;4.758;2023-11-19T04:46:59;5.85;;;2.03;;
11490;SDS011;5802;52.832;4.758;2023-11-19T04:49:26;5.95;;;2.28;;
11490;SDS011;5802;52.832;4.758;2023-11-19T04:51:52;4.32;;;2.00;;
11490;SDS011;5802;52.832;4.758;2023-11-19T04:54:19;7.25;;;1.92;;
11490;SDS011;5802;52.832;4.758;2023-11-19T04:56:46;4.28;;;1.90;;
11490;SDS011;5802;52.832;4.758;2023-11-19T04:59:13;5.65;;;2.22;;
11490;SDS011;5802;52.832;4.758;2023-11-19T05:01:39;6.90;;;2.30;;
11490;SDS011;5802;52.832;4.758;2023-11-19T05:04:08;6.63;;;2.20;;
11490;SDS011;5802;52.832;4.758;2023-11-19T05:06:35;3.72;;;1.90;;
11490;SDS011;5802;52.832;4.758;2023-11-19T05:09:02;5.93;;;1.95;;
11490;SDS011;5802;52.832;4.758;2023-11-19T05:11:29;7.15;;;2.30;;
11490;SDS011;5802;52.832;4.758;2023-11-19T05:13:56;4.97;;;2.10;;
11490;SDS011;5802;52.832;4.758;2023-11-19T05:16:23;4.88;;;2.00;;
11490;SDS011;5802;52.832;4.758;2023-11-19T05:18:49;4.75;;;2.00;;
11490;SDS011;5802;52.832;4.758;2023-11-19T05:21:18;5.18;;;2.05;;
11490;SDS011;5802;52.832;4.758;2023-11-19T05:23:45;3.90;;;1.80;;
11490;SDS011;5802;52.832;4.758;2023-11-19T05:26:16;7.20;;;2.17;;
11490;SDS011;5802;52.832;4.758;2023-11-19T05:28:44;3.85;;;2.05;;
11490;SDS011;5802;52.832;4.758;2023-11-19T05:31:11;5.20;;;1.95;;
11490;SDS011;5802;52.832;4.758;2023-11-19T05:33:38;5.32;;;2.22;;
11490;SDS011;5802;52.832;4.758;2023-11-19T05:36:05;4.70;;;2.22;;
11490;SDS011;5802;52.832;4.758;2023-11-19T05:38:34;4.68;;;1.80;;
11490;SDS011;5802;52.832;4.758;2023-11-19T05:41:01;4.97;;;2.00;;
11490;SDS011;5802;52.832;4.758;2023-11-19T05:43:27;4.45;;;2.30;;
11490;SDS011;5802;52.832;4.758;2023-11-19T05:45:54;6.63;;;2.40;;
11490;SDS011;5802;52.832;4.758;2023-11-19T05:48:21;5.63;;;2.13;;
11490;SDS011;5802;52.832;4.758;2023-11-19T05:50:47;6.60;;;2.20;;
11490;SDS011;5802;52.832;4.758;2023-11-19T05:53:15;5.22;;;2.10;;
11490;SDS011;5802;52.832;4.758;2023-11-19T05:55:43;5.00;;;1.95;;
11490;SDS011;5802;52.832;4.758;2023-11-19T05:58:14;5.22;;;2.05;;
11490;SDS011;5802;52.832;4.758;2023-11-19T06:00:41;5.32;;;2.00;;
11490;SDS011;5802;52.832;4.758;2023-11-19T06:03:08;4.47;;;1.95;;
11490;SDS011;5802;52.832;4.758;2023-11-19T06:05:35;5.50;;;2.03;;
11490;SDS011;5802;52.832;4.758;2023-11-19T06:08:01;5.72;;;1.95;;
11490;SDS011;5802;52.832;4.758;2023-11-19T06:10:28;6.10;;;2.08;;
11490;SDS011;5802;52.832;4.758;2023-11-19T06:12:57;5.68;;;1.92;;
11490;SDS011;5802;52.832;4.758;2023-11-19T06:15:24;6.38;;;2.10;;
11490;SDS011;5802;52.832;4.758;2023-11-19T06:17:52;5.80;;;2.25;;
11490;SDS011;5802;52.832;4.758;2023-11-19T06:20:19;3.47;;;1.98;;
11490;SDS011;5802;52.832;4.758;2023-11-19T06:22:46;6.30;;;2.20;;
11490;SDS011;5802;52.832;4.758;2023-11-19T06:25:13;6.13;;;2.15;;
11490;SDS011;5802;52.832;4.758;2023-11-19T06:27:40;6.65;;;1.90;;
11490;SDS011;5802;52.832;4.758;2023-11-19T06:30:09;4.97;;;2.10;;
11490;SDS011;5802;52.832;4.758;2023-11-19T06:32:36;5.47;;;1.88;;
11490;SDS011;5802;52.832;4.758;2023-11-19T06:35:03;4.57;;;1.80;;
11490;SDS011;5802;52.832;4.758;2023-11-19T06:37:30;6.82;;;2.35;;
11490;SDS011;5802;52.832;4.758;2023-11-19T06:39:57;6.07;;;2.15;;
11490;SDS011;5802;52.832;4.758;2023-11-19T06:42:24;4.88;;;1.83;;
11490;SDS011;5802;52.832;4.758;2023-11-19T06:44:51;5.00;;;2.20;;
11490;SDS011;5802;52.832;4.758;2023-11-19T06:47:19;6.88;;;1.88;;
11490;SDS011;5802;52.832;4.758;2023-11-19T06:49:45;5.05;;;2.00;;
11490;SDS011;5802;52.832;4.758;2023-11-19T06:52:12;4.25;;;2.03;;
11490;SDS011;5802;52.832;4.758;2023-11-19T06:54:39;4.20;;;1.98;;
11490;SDS011;5802;52.832;4.758;2023-11-19T06:57:05;5.28;;;2.22;;
11490;SDS011;5802;52.832;4.758;2023-11-19T06:59:32;6.25;;;1.92;;
11490;SDS011;5802;52.832;4.758;2023-11-19T07:01:59;7.05;;;2.10;;
11490;SDS011;5802;52.832;4.758;2023-11-19T07:04:27;4.97;;;1.70;;
11490;SDS011;5802;52.832;4.758;2023-11-19T07:06:54;5.70;;;2.10;;
11490;SDS011;5802;52.832;4.758;2023-11-19T07:09:20;5.00;;;2.08;;
11490;SDS011;5802;52.832;4.758;2023-11-19T07:11:48;3.67;;;1.83;;
11490;SDS011;5802;52.832;4.758;2023-11-19T07:14:17;3.95;;;2.00;;
11490;SDS011;5802;52.832;4.758;2023-11-19T07:16:44;6.05;;;2.30;;
11490;SDS011;5802;52.832;4.758;2023-11-19T07:19:11;4.88;;;2.08;;
11490;SDS011;5802;52.832;4.758;2023-11-19T07:21:42;5.07;;;2.05;;
11490;SDS011;5802;52.832;4.758;2023-11-19T07:24:10;6.13;;;2.08;;
11490;SDS011;5802;52.832;4.758;2023-11-19T07:26:41;5.68;;;2.53;;
11490;SDS011;5802;52.832;4.758;2023-11-19T07:29:09;6.95;;;2.42;;
11490;SDS011;5802;52.832;4.758;2023-11-19T07:31:36;6.90;;;1.95;;
11490;SDS011;5802;52.832;4.758;2023-11-19T07:34:02;7.20;;;2.08;;
11490;SDS011;5802;52.832;4.758;2023-11-19T07:36:30;5.32;;;2.15;;
11490;SDS011;5802;52.832;4.758;2023-11-19T07:38:58;6.40;;;1.90;;
11490;SDS011;5802;52.832;4.758;2023-11-19T07:41:25;5.60;;;2.22;;
11490;SDS011;5802;52.832;4.758;2023-11-19T07:43:51;5.47;;;2.15;;
11490;SDS011;5802;52.832;4.758;2023-11-19T07:46:19;6.15;;;2.45;;
11490;SDS011;5802;52.832;4.758;2023-11-19T07:48:46;7.00;;;2.67;;
11490;SDS011;5802;52.832;4.758;2023-11-19T07:51:13;7.40;;;2.00;;
11490;SDS011;5802;52.832;4.758;2023-11-19T07:53:40;7.25;;;2.53;;
11490;SDS011;5802;52.832;4.758;2023-11-19T07:56:08;9.05;;;2.45;;
11490;SDS011;5802;52.832;4.758;2023-11-19T07:58:35;7.28;;;2.42;;
11490;SDS011;5802;52.832;4.758;2023-11-19T08:01:02;4.95;;;2.20;;
11490;SDS011;5802;52.832;4.758;2023-11-19T08:03:29;5.65;;;2.28;;
11490;SDS011;5802;52.832;4.758;2023-11-19T08:05:59;8.48;;;2.65;;
11490;SDS011;5802;52.832;4.758;2023-11-19T08:08:26;8.18;;;2.30;;
11490;SDS011;5802;52.832;4.758;2023-11-19T08:10:54;6.90;;;2.30;;
11490;SDS011;5802;52.832;4.758;2023-11-19T08:13:22;7.90;;;2.53;;
11490;SDS011;5802;52.832;4.758;2023-11-19T08:15:49;6.57;;;2.63;;
11490;SDS011;5802;52.832;4.758;2023-11-19T08:18:16;10.35;;;2.72;;
11490;SDS011;5802;52.832;4.758;2023-11-19T08:20:43;7.50;;;2.78;;
11490;SDS011;5802;52.832;4.758;2023-11-19T08:23:10;8.57;;;2.75;;
11490;SDS011;5802;52.832;4.758;2023-11-19T08:25:38;8.55;;;2.63;;
11490;SDS011;5802;52.832;4.758;2023-11-19T08:28:04;7.38;;;2.55;;
11490;SDS011;5802;52.832;4.758;2023-11-19T08:30:32;8.05;;;2.25;;
11490;SDS011;5802;52.832;4.758;2023-11-19T08:32:59;8.90;;;2.88;;
11490;SDS011;5802;52.832;4.758;2023-11-19T08:35:27;9.30;;;2.83;;
11490;SDS011;5802;52.832;4.758;2023-11-19T08:37:54;8.48;;;2.80;;
11490;SDS011;5802;52.832;4.758;2023-11-19T08:40:22;7.95;;;2.58;;
11490;SDS011;5802;52.832;4.758;2023-11-19T08:42:49;7.75;;;2.35;;
11490;SDS011;5802;52.832;4.758;2023-11-19T08:45:15;9.93;;;2.67;;
11490;SDS011;5802;52.832;4.758;2023-11-19T08:47:43;8.27;;;2.67;;
11490;SDS011;5802;52.832;4.758;2023-11-19T08:50:10;6.88;;;2.72;;
11490;SDS011;5802;52.832;4.758;2023-11-19T08:52:37;8.50;;;2.65;;
11490;SDS011;5802;52.832;4.758;2023-11-19T08:55:04;5.45;;;2.35;;
11490;SDS011;5802;52.832;4.758;2023-11-19T08:57:31;7.95;;;3.08;;
11490;SDS011;5802;52.832;4.758;2023-11-19T08:59:58;8.35;;;2.80;;
11490;SDS011;5802;52.832;4.758;2023-11-19T09:02:25;6.15;;;2.72;;
11490;SDS011;5802;52.832;4.758;2023-11-19T09:04:53;5.65;;;2.45;;
11490;SDS011;5802;52.832;4.758;2023-11-19T09:07:19;7.57;;;2.63;;
11490;SDS011;5802;52.832;4.758;2023-11-19T09:09:47;9.52;;;2.88;;
11490;SDS011;5802;52.832;4.758;2023-11-19T09:12:13;6.32;;;2.05;;
11490;SDS011;5802;52.832;4.758;2023-11-19T09:14:40;10.82;;;2.85;;
11490;SDS011;5802;52.832;4.758;2023-11-19T09:17:07;6.88;;;2.67;;
11490;SDS011;5802;52.832;4.758;2023-11-19T09:19:34;7.32;;;2.50;;
11490;SDS011;5802;52.832;4.758;2023-11-19T09:22:02;9.85;;;2.92;;
11490;SDS011;5802;52.832;4.758;2023-11-19T09:24:29;9.82;;;2.78;;
11490;SDS011;5802;52.832;4.758;2023-11-19T09:26:56;6.30;;;2.70;;
11490;SDS011;5802;52.832;4.758;2023-11-19T09:29:23;6.63;;;2.63;;
11490;SDS011;5802;52.832;4.758;2023-11-19T09:31:49;7.95;;;2.42;;
11490;SDS011;5802;52.832;4.758;2023-11-19T09:34:16;6.82;;;2.65;;
11490;SDS011;5802;52.832;4.758;2023-11-19T09:36:43;7.57;;;2.80;;
11490;SDS011;5802;52.832;4.758;2023-11-19T09:39:11;6.90;;;2.38;;
11490;SDS011;5802;52.832;4.758;2023-11-19T09:41:39;5.03;;;2.58;;
11490;SDS011;5802;52.832;4.758;2023-11-19T09:44:07;7.07;;;2.42;;
11490;SDS011;5802;52.832;4.758;2023-11-19T09:46:34;9.77;;;2.83;;
11490;SDS011;5802;52.832;4.758;2023-11-19T09:49:02;6.50;;;2.50;;
11490;SDS011;5802;52.832;4.758;2023-11-19T09:51:30;7.32;;;2.45;;
11490;SDS011;5802;52.832;4.758;2023-11-19T09:53:56;7.20;;;2.55;;
11490;SDS011;5802;52.832;4.758;2023-11-19T09:56:24;6.65;;;2.35;;
11490;SDS011;5802;52.832;4.758;2023-11-19T09:58:54;7.03;;;2.30;;
11490;SDS011;5802;52.832;4.758;2023-11-19T10:01:21;7.65;;;2.25;;
11490;SDS011;5802;52.832;4.758;2023-11-19T10:03:48;6.07;;;2.17;;
11490;SDS011;5802;52.832;4.758;2023-11-19T10:06:18;6.07;;;2.55;;
11490;SDS011;5802;52.832;4.758;2023-11-19T10:08:45;6.85;;;2.50;;
11490;SDS011;5802;52.832;4.758;2023-11-19T10:11:12;5.65;;;2.40;;
11490;SDS011;5802;52.832;4.758;2023-11-19T10:13:41;6.47;;;2.30;;
11490;SDS011;5802;52.832;4.758;2023-11-19T10:16:08;5.53;;;2.38;;
11490;SDS011;5802;52.832;4.758;2023-11-19T10:18:36;7.47;;;2.42;;
11490;SDS011;5802;52.832;4.758;2023-11-19T10:21:03;6.57;;;2.33;;
11490;SDS011;5802;52.832;4.758;2023-11-19T10:23:41;7.38;;;2.40;;
11490;SDS011;5802;52.832;4.758;2023-11-19T10:26:15;8.05;;;2.35;;
11490;SDS011;5802;52.832;4.758;2023-11-19T10:28:43;8.73;;;3.00;;
11490;SDS011;5802;52.832;4.758;2023-11-19T10:31:11;14.15;;;3.05;;
11490;SDS011;5802;52.832;4.758;2023-11-19T10:33:38;14.77;;;3.63;;
11490;SDS011;5802;52.832;4.758;2023-11-19T10:36:05;10.77;;;3.35;;
11490;SDS011;5802;52.832;4.758;2023-11-19T10:38:33;12.63;;;3.60;;
11490;SDS011;5802;52.832;4.758;2023-11-19T10:41:00;17.20;;;4.15;;
11490;SDS011;5802;52.832;4.758;2023-11-19T10:43:26;20.83;;;4.15;;
11490;SDS011;5802;52.832;4.758;2023-11-19T10:45:54;16.65;;;4.13;;
11490;SDS011;5802;52.832;4.758;2023-11-19T10:48:35;23.73;;;4.70;;
11490;SDS011;5802;52.832;4.758;2023-11-19T10:51:02;15.43;;;4.20;;
11490;SDS011;5802;52.832;4.758;2023-11-19T10:53:33;20.73;;;4.18;;
11490;SDS011;5802;52.832;4.758;2023-11-19T10:56:02;14.60;;;4.57;;
11490;SDS011;5802;52.832;4.758;2023-11-19T10:58:33;13.95;;;3.90;;
11490;SDS011;5802;52.832;4.758;2023-11-19T11:01:06;21.65;;;4.43;;
11490;SDS011;5802;52.832;4.758;2023-11-19T11:03:38;20.45;;;4.38;;
11490;SDS011;5802;52.832;4.758;2023-11-19T11:06:06;20.10;;;4.50;;
11490;SDS011;5802;52.832;4.758;2023-11-19T11:08:34;12.70;;;4.07;;
11490;SDS011;5802;52.832;4.758;2023-11-19T11:11:02;17.55;;;4.35;;
11490;SDS011;5802;52.832;4.758;2023-11-19T11:13:31;14.23;;;3.72;;
11490;SDS011;5802;52.832;4.758;2023-11-19T11:15:59;16.63;;;4.32;;
11490;SDS011;5802;52.832;4.758;2023-11-19T11:18:29;13.73;;;4.10;;
11490;SDS011;5802;52.832;4.758;2023-11-19T11:21:00;13.60;;;3.58;;
11490;SDS011;5802;52.832;4.758;2023-11-19T11:23:37;15.02;;;3.78;;
11490;SDS011;5802;52.832;4.758;2023-11-19T11:26:34;14.82;;;4.07;;
11490;SDS011;5802;52.832;4.758;2023-11-19T11:29:26;14.13;;;3.40;;
11490;SDS011;5802;52.832;4.758;2023-11-19T11:32:04;13.52;;;3.83;;
11490;SDS011;5802;52.832;4.758;2023-11-19T11:34:47;17.00;;;4.80;;
11490;SDS011;5802;52.832;4.758;2023-11-19T11:37:30;11.95;;;3.70;;
11490;SDS011;5802;52.832;4.758;2023-11-19T11:39:59;14.57;;;3.80;;
11490;SDS011;5802;52.832;4.758;2023-11-19T11:42:30;17.83;;;4.03;;
11490;SDS011;5802;52.832;4.758;2023-11-19T11:44:58;14.48;;;3.30;;
11490;SDS011;5802;52.832;4.758;2023-11-19T11:47:25;12.13;;;3.92;;
11490;SDS011;5802;52.832;4.758;2023-11-19T11:49:53;14.70;;;4.15;;
11490;SDS011;5802;52.832;4.758;2023-11-19T11:52:20;16.60;;;4.60;;
11490;SDS011;5802;52.832;4.758;2023-11-19T11:54:46;12.30;;;3.60;;
11490;SDS011;5802;52.832;4.758;2023-11-19T11:57:13;15.23;;;4.22;;
11490;SDS011;5802;52.832;4.758;2023-11-19T11:59:47;19.55;;;4.68;;
11490;SDS011;5802;52.832;4.758;2023-11-19T12:02:15;17.20;;;4.18;;
11490;SDS011;5802;52.832;4.758;2023-11-19T12:04:43;11.43;;;3.72;;
11490;SDS011;5802;52.832;4.758;2023-11-19T12:07:16;16.58;;;4.00;;
11490;SDS011;5802;52.832;4.758;2023-11-19T12:09:46;13.85;;;3.90;;
11490;SDS011;5802;52.832;4.758;2023-11-19T12:12:18;12.02;;;3.90;;
11490;SDS011;5802;52.832;4.758;2023-11-19T12:15:00;11.88;;;3.40;;
11490;SDS011;5802;52.832;4.758;2023-11-19T12:17:36;12.55;;;3.47;;
11490;SDS011;5802;52.832;4.758;2023-11-19T12:20:09;12.30;;;3.90;;
11490;SDS011;5802;52.832;4.758;2023-11-19T12:22:38;11.57;;;3.47;;
11490;SDS011;5802;52.832;4.758;2023-11-19T12:25:06;10.57;;;3.08;;
11490;SDS011;5802;52.832;4.758;2023-11-19T12:27:33;11.25;;;3.65;;
11490;SDS011;5802;52.832;4.758;2023-11-19T12:30:00;12.05;;;3.05;;
11490;SDS011;5802;52.832;4.758;2023-11-19T12:32:36;13.88;;;3.60;;
11490;SDS011;5802;52.832;4.758;2023-11-19T12:35:04;12.73;;;3.38;;
11490;SDS011;5802;52.832;4.758;2023-11-19T12:37:30;13.18;;;3.45;;
11490;SDS011;5802;52.832;4.758;2023-11-19T12:39:58;8.43;;;2.88;;
11490;SDS011;5802;52.832;4.758;2023-11-19T12:42:34;15.55;;;3.70;;
11490;SDS011;5802;52.832;4.758;2023-11-19T12:45:01;11.55;;;3.10;;
11490;SDS011;5802;52.832;4.758;2023-11-19T12:47:29;8.90;;;2.88;;
11490;SDS011;5802;52.832;4.758;2023-11-19T12:49:56;12.40;;;3.20;;
11490;SDS011;5802;52.832;4.758;2023-11-19T12:52:22;12.18;;;3.03;;
11490;SDS011;5802;52.832;4.758;2023-11-19T12:54:49;9.32;;;3.03;;
11490;SDS011;5802;52.832;4.758;2023-11-19T12:57:18;9.60;;;2.50;;
11490;SDS011;5802;52.832;4.758;2023-11-19T12:59:54;9.70;;;3.15;;
11490;SDS011;5802;52.832;4.758;2023-11-19T13:02:21;12.00;;;2.78;;
11490;SDS011;5802;52.832;4.758;2023-11-19T13:04:48;9.20;;;3.08;;
11490;SDS011;5802;52.832;4.758;2023-11-19T13:07:19;9.02;;;2.67;;
11490;SDS011;5802;52.832;4.758;2023-11-19T13:09:46;12.07;;;2.78;;
11490;SDS011;5802;52.832;4.758;2023-11-19T13:12:14;10.10;;;2.75;;
11490;SDS011;5802;52.832;4.758;2023-11-19T13:14:43;7.15;;;2.72;;
11490;SDS011;5802;52.832;4.758;2023-11-19T13:17:14;12.02;;;3.05;;
11490;SDS011;5802;52.832;4.758;2023-11-19T13:19:41;7.97;;;2.33;;
11490;SDS011;5802;52.832;4.758;2023-11-19T13:22:08;9.50;;;2.58;;
11490;SDS011;5802;52.832;4.758;2023-11-19T13:24:34;12.10;;;2.83;;
11490;SDS011;5802;52.832;4.758;2023-11-19T13:27:02;7.53;;;2.63;;
11490;SDS011;5802;52.832;4.758;2023-11-19T13:29:29;7.25;;;2.80;;
11490;SDS011;5802;52.832;4.758;2023-11-19T13:31:57;8.75;;;2.17;;
11490;SDS011;5802;52.832;4.758;2023-11-19T13:34:25;5.53;;;2.53;;
11490;SDS011;5802;52.832;4.758;2023-11-19T13:36:51;7.32;;;2.17;;
11490;SDS011;5802;52.832;4.758;2023-11-19T13:39:18;7.70;;;2.60;;
11490;SDS011;5802;52.832;4.758;2023-11-19T13:41:48;5.90;;;2.08;;
11490;SDS011;5802;52.832;4.758;2023-11-19T13:44:15;7.30;;;2.60;;
11490;SDS011;5802;52.832;4.758;2023-11-19T13:46:44;10.85;;;2.63;;
11490;SDS011;5802;52.832;4.758;2023-11-19T13:49:12;7.60;;;2.40;;
11490;SDS011;5802;52.832;4.758;2023-11-19T13:51:38;8.25;;;2.05;;
11490;SDS011;5802;52.832;4.758;2023-11-19T13:54:05;11.38;;;2.78;;
11490;SDS011;5802;52.832;4.758;2023-11-19T13:56:32;7.30;;;2.45;;
11490;SDS011;5802;52.832;4.758;2023-11-19T13:58:58;7.32;;;2.38;;
11490;SDS011;5802;52.832;4.758;2023-11-19T14:01:25;8.00;;;2.38;;
11490;SDS011;5802;52.832;4.758;2023-11-19T14:03:52;7.97;;;2.33;;
11490;SDS011;5802;52.832;4.758;2023-11-19T14:06:20;6.57;;;2.38;;
11490;SDS011;5802;52.832;4.758;2023-11-19T14:08:47;6.43;;;2.35;;
11490;SDS011;5802;52.832;4.758;2023-11-19T14:11:14;7.03;;;2.65;;
11490;SDS011;5802;52.832;4.758;2023-11-19T14:13:41;6.28;;;2.03;;
11490;SDS011;5802;52.832;4.758;2023-11-19T14:16:08;5.20;;;2.53;;
11490;SDS011;5802;52.832;4.758;2023-11-19T14:18:35;6.72;;;2.15;;
11490;SDS011;5802;52.832;4.758;2023-11-19T14:21:02;5.85;;;2.35;;
11490;SDS011;5802;52.832;4.758;2023-11-19T14:23:31;6.82;;;2.40;;
11490;SDS011;5802;52.832;4.758;2023-11-19T14:25:57;9.68;;;3.00;;
11490;SDS011;5802;52.832;4.758;2023-11-19T14:28:24;8.40;;;2.10;;
11490;SDS011;5802;52.832;4.758;2023-11-19T14:30:52;7.05;;;2.00;;
11490;SDS011;5802;52.832;4.758;2023-11-19T14:33:21;6.35;;;2.25;;
11490;SDS011;5802;52.832;4.758;2023-11-19T14:35:48;7.00;;;2.60;;
11490;SDS011;5802;52.832;4.758;2023-11-19T14:38:15;5.78;;;2.00;;
11490;SDS011;5802;52.832;4.758;2023-11-19T14:40:43;7.15;;;2.25;;
11490;SDS011;5802;52.832;4.758;2023-11-19T14:43:10;7.47;;;2.40;;
11490;SDS011;5802;52.832;4.758;2023-11-19T14:45:36;6.68;;;2.30;;
11490;SDS011;5802;52.832;4.758;2023-11-19T14:48:03;6.07;;;2.30;;
11490;SDS011;5802;52.832;4.758;2023-11-19T14:50:31;7.82;;;2.30;;
11490;SDS011;5802;52.832;4.758;2023-11-19T14:52:57;5.07;;;1.95;;
11490;SDS011;5802;52.832;4.758;2023-11-19T14:55:24;6.40;;;2.10;;
11490;SDS011;5802;52.832;4.758;2023-11-19T14:57:52;5.82;;;2.17;;
11490;SDS011;5802;52.832;4.758;2023-11-19T15:00:19;6.30;;;2.55;;
11490;SDS011;5802;52.832;4.758;2023-11-19T15:02:46;6.90;;;2.17;;